Time;durP1;ratioP1;P1;durP2;ratioP2;P2;SDS_P1;SDS_P2;PMS_P1;PMS_P2;Temp;Humidity;BMP_temperature;BMP_pressure;BME280_temperature;BME280_humidity;BME280_pressure;Samples;Min_cycle;Max_cycle;Signal;HPM_P1;HPM_P2
2021/05/29 00:01:02;;;;;;;14.18;6.13;;;11.00;99.90;;;;;;5043363;28;20084;-80
2021/05/29 00:03:28;;;;;;;11.55;6.32;;;10.90;99.90;;;;;;5046625;28;20053;-80
2021/05/29 00:05:56;;;;;;;10.60;6.28;;;10.90;99.90;;;;;;5043353;28;20049;-81
2021/05/29 00:08:23;;;;;;;7.38;5.88;;;10.80;99.90;;;;;;5042451;28;20049;-81
2021/05/29 00:10:53;;;;;;;9.93;6.57;;;10.80;99.90;;;;;;5074896;28;20146;-81
2021/05/29 00:13:21;;;;;;;8.20;6.22;;;10.70;99.90;;;;;;5062190;28;20044;-81
2021/05/29 00:15:48;;;;;;;12.27;6.95;;;10.70;99.90;;;;;;5047031;28;20072;-80
2021/05/29 00:18:16;;;;;;;10.18;6.78;;;10.60;99.90;;;;;;5041487;28;20048;-80
2021/05/29 00:20:43;;;;;;;13.80;7.15;;;10.60;99.90;;;;;;5042008;28;20107;-80
2021/05/29 00:23:11;;;;;;;10.75;6.20;;;10.50;99.90;;;;;;5057178;28;20048;-80
2021/05/29 00:25:39;;;;;;;11.77;6.20;;;10.50;99.90;;;;;;5047669;28;20080;-80
2021/05/29 00:28:05;;;;;;;9.68;6.60;;;10.40;99.90;;;;;;5055726;28;20098;-80
2021/05/29 00:30:32;;;;;;;10.95;7.30;;;10.40;99.90;;;;;;5042326;28;20120;-80
2021/05/29 00:32:59;;;;;;;13.15;7.05;;;10.40;99.90;;;;;;5042081;28;20127;-81
2021/05/29 00:35:26;;;;;;;11.82;6.97;;;10.30;99.90;;;;;;5043872;28;20496;-80
2021/05/29 00:37:53;;;;;;;12.63;6.47;;;10.20;99.90;;;;;;5040761;28;20118;-80
2021/05/29 00:40:21;;;;;;;11.43;6.55;;;10.20;99.90;;;;;;5057690;28;20048;-80
2021/05/29 00:42:47;;;;;;;11.20;6.95;;;10.20;99.90;;;;;;5038618;28;20056;-81
2021/05/29 00:45:14;;;;;;;10.38;6.53;;;10.10;99.90;;;;;;5044555;28;20071;-81
2021/05/29 00:47:41;;;;;;;12.70;7.45;;;10.10;99.90;;;;;;5042018;28;20056;-81
2021/05/29 00:50:11;;;;;;;11.25;6.35;;;10.00;99.90;;;;;;5074059;28;20072;-80
2021/05/29 00:52:39;;;;;;;16.10;6.80;;;9.90;99.90;;;;;;5043898;28;20512;-80
2021/05/29 00:55:10;;;;;;;10.07;6.10;;;9.90;99.90;;;;;;5045272;28;20497;-81
2021/05/29 00:57:42;;;;;;;14.57;7.40;;;9.80;99.90;;;;;;5035881;28;20073;-80
2021/05/29 01:00:12;;;;;;;10.15;6.65;;;9.80;99.90;;;;;;5056235;28;20081;-79
2021/05/29 01:02:39;;;;;;;11.15;6.30;;;9.70;99.90;;;;;;5038750;28;20049;-80
2021/05/29 01:05:09;;;;;;;15.65;7.03;;;9.70;99.90;;;;;;5040847;28;20587;-80
2021/05/29 01:07:36;;;;;;;12.38;7.05;;;9.60;99.90;;;;;;5038095;28;20080;-81
2021/05/29 01:10:06;;;;;;;12.25;7.20;;;9.60;99.90;;;;;;5045462;28;20045;-80
2021/05/29 01:12:33;;;;;;;10.68;6.95;;;9.50;99.90;;;;;;5046027;28;20080;-80
2021/05/29 01:15:03;;;;;;;12.15;6.63;;;9.50;99.90;;;;;;5039596;28;20400;-80
2021/05/29 01:17:30;;;;;;;12.82;7.72;;;9.40;99.90;;;;;;5039904;28;20535;-80
2021/05/29 01:19:57;;;;;;;12.23;7.05;;;9.50;99.90;;;;;;5055766;28;20532;-80
2021/05/29 01:22:41;;;;;;;14.00;6.82;;;9.40;99.90;;;;;;5036189;28;20069;-80
2021/05/29 01:25:20;;;;;;;12.60;7.18;;;9.40;99.90;;;;;;5078978;28;20103;-80
2021/05/29 01:27:55;;;;;;;9.88;6.25;;;9.40;99.90;;;;;;5041015;28;20044;-80
2021/05/29 01:30:22;;;;;;;11.30;6.70;;;9.30;99.90;;;;;;5042036;28;20037;-80
2021/05/29 01:32:49;;;;;;;14.88;7.07;;;9.30;99.90;;;;;;5022080;28;20392;-79
2021/05/29 01:35:16;;;;;;;12.15;7.03;;;9.30;99.90;;;;;;5043657;28;20049;-80
2021/05/29 01:37:44;;;;;;;10.80;7.25;;;9.30;99.90;;;;;;5042124;28;20059;-80
2021/05/29 01:40:11;;;;;;;15.68;7.20;;;9.20;99.90;;;;;;5040572;28;20137;-81
2021/05/29 01:42:38;;;;;;;10.10;6.25;;;9.20;99.90;;;;;;5044512;28;20120;-81
2021/05/29 01:45:08;;;;;;;13.20;6.32;;;9.20;99.90;;;;;;5044852;28;20094;-80
2021/05/29 01:47:40;;;;;;;12.73;6.45;;;9.20;99.90;;;;;;5041316;28;20056;-80
2021/05/29 01:50:08;;;;;;;11.30;6.88;;;9.10;99.90;;;;;;5036070;28;20135;-80
2021/05/29 01:52:46;;;;;;;9.60;6.25;;;9.10;99.90;;;;;;5043614;28;20049;-80
2021/05/29 01:55:14;;;;;;;9.93;5.88;;;9.00;99.90;;;;;;5056574;28;20807;-80
2021/05/29 01:57:41;;;;;;;10.90;6.40;;;9.00;99.90;;;;;;5043899;28;20055;-80
2021/05/29 02:00:09;;;;;;;9.68;6.57;;;9.00;99.90;;;;;;5046395;28;20056;-79
2021/05/29 02:02:36;;;;;;;11.13;6.38;;;9.00;99.90;;;;;;5044073;28;20049;-79
2021/05/29 02:05:12;;;;;;;11.00;6.40;;;8.90;99.90;;;;;;5045123;28;20047;-80
2021/05/29 02:07:39;;;;;;;10.40;6.10;;;8.90;99.90;;;;;;5042608;28;20032;-80
2021/05/29 02:10:06;;;;;;;10.48;7.13;;;8.90;99.90;;;;;;5046231;28;20057;-79
2021/05/29 02:12:46;;;;;;;10.32;6.97;;;8.90;99.90;;;;;;5041519;28;20042;-80
2021/05/29 02:15:23;;;;;;;13.40;6.50;;;8.90;99.90;;;;;;5044993;28;20567;-80
2021/05/29 02:17:53;;;;;;;10.15;6.78;;;8.90;99.90;;;;;;5060702;28;20047;-80
2021/05/29 02:20:38;;;;;;;12.18;7.18;;;8.90;99.90;;;;;;5040549;28;20047;-80
2021/05/29 02:23:07;;;;;;;13.88;7.93;;;8.90;99.90;;;;;;5036275;28;20057;-80
2021/05/29 02:25:34;;;;;;;15.55;7.72;;;8.90;99.90;;;;;;5071859;28;20066;-79
2021/05/29 02:28:01;;;;;;;19.52;7.80;;;8.90;99.90;;;;;;5075333;28;20056;-78
2021/05/29 02:30:28;;;;;;;15.05;8.25;;;8.90;99.90;;;;;;5040964;28;20041;-79
2021/05/29 02:32:54;;;;;;;20.20;9.27;;;8.90;99.90;;;;;;5040126;28;20052;-80
2021/05/29 02:35:21;;;;;;;12.35;8.20;;;8.90;99.90;;;;;;5046582;28;20065;-79
2021/05/29 02:37:48;;;;;;;17.50;8.15;;;8.90;99.90;;;;;;5048386;28;20504;-79
2021/05/29 02:40:15;;;;;;;18.05;9.30;;;8.80;99.90;;;;;;5044303;28;20763;-79
2021/05/29 02:42:42;;;;;;;15.38;8.85;;;8.80;99.90;;;;;;5041380;28;20052;-79
2021/05/29 02:45:10;;;;;;;16.35;8.88;;;8.90;99.90;;;;;;5035192;28;20056;-79
2021/05/29 02:47:37;;;;;;;16.15;9.15;;;8.90;99.90;;;;;;5070808;28;20049;-79
2021/05/29 02:50:05;;;;;;;21.63;9.23;;;8.80;99.90;;;;;;5070992;28;20112;-79
2021/05/29 02:52:32;;;;;;;17.60;9.93;;;8.90;99.90;;;;;;5039724;28;20049;-78
2021/05/29 02:54:59;;;;;;;20.55;9.20;;;8.80;99.90;;;;;;5046926;28;20121;-79
2021/05/29 02:57:26;;;;;;;14.32;8.80;;;8.80;99.90;;;;;;5041374;28;20061;-79
2021/05/29 02:59:53;;;;;;;20.52;9.07;;;8.80;99.90;;;;;;5046248;28;20412;-79
2021/05/29 03:02:20;;;;;;;15.48;8.82;;;8.80;99.90;;;;;;5042461;28;20045;-79
2021/05/29 03:04:47;;;;;;;16.70;9.10;;;8.80;99.90;;;;;;5040903;28;20053;-79
2021/05/29 03:07:13;;;;;;;16.60;9.48;;;8.80;99.90;;;;;;5046714;28;20057;-78
2021/05/29 03:09:40;;;;;;;17.63;9.30;;;8.80;99.90;;;;;;5047257;28;20049;-78
2021/05/29 03:12:07;;;;;;;16.25;9.75;;;8.80;99.90;;;;;;5043440;28;20045;-78
2021/05/29 03:14:34;;;;;;;16.80;8.57;;;8.80;99.90;;;;;;5043120;28;20049;-78
2021/05/29 03:17:02;;;;;;;17.33;8.80;;;8.70;99.90;;;;;;5043906;28;20049;-79
2021/05/29 03:19:29;;;;;;;21.95;9.25;;;8.80;99.90;;;;;;5053648;28;20508;-80
2021/05/29 03:21:55;;;;;;;20.52;9.57;;;8.80;99.90;;;;;;5030475;28;20063;-79
2021/05/29 03:24:23;;;;;;;17.30;9.18;;;8.70;99.90;;;;;;5042500;28;20059;-79
2021/05/29 03:26:50;;;;;;;15.63;9.85;;;8.70;99.90;;;;;;5044534;28;20049;-79
2021/05/29 03:29:16;;;;;;;16.98;9.45;;;8.70;99.90;;;;;;5057249;28;20056;-79
2021/05/29 03:31:43;;;;;;;16.73;10.27;;;8.70;99.90;;;;;;5040580;28;20045;-79
2021/05/29 03:34:10;;;;;;;17.90;9.80;;;8.70;99.90;;;;;;5041708;28;20049;-79
2021/05/29 03:36:37;;;;;;;22.48;10.45;;;8.70;99.90;;;;;;5039786;28;20493;-79
2021/05/29 03:39:05;;;;;;;20.63;9.63;;;8.70;99.90;;;;;;5038586;28;20053;-79
2021/05/29 03:41:32;;;;;;;29.92;11.25;;;8.70;99.90;;;;;;5042429;28;20053;-79
2021/05/29 03:44:00;;;;;;;19.15;10.23;;;8.70;99.90;;;;;;5043837;28;20057;-79
2021/05/29 03:46:28;;;;;;;19.60;10.52;;;8.70;99.90;;;;;;5044291;28;20049;-79
2021/05/29 03:48:55;;;;;;;19.75;11.07;;;8.70;99.90;;;;;;5038613;28;20053;-81
2021/05/29 03:51:22;;;;;;;18.40;11.38;;;8.70;99.90;;;;;;5043932;28;20124;-80
2021/05/29 03:53:48;;;;;;;23.63;11.73;;;8.80;99.90;;;;;;5043310;28;20050;-80
2021/05/29 03:56:15;;;;;;;19.42;10.13;;;8.80;99.90;;;;;;5045943;28;20506;-79
2021/05/29 03:58:42;;;;;;;26.80;12.23;;;8.90;99.90;;;;;;5043442;28;20127;-79
2021/05/29 04:01:08;;;;;;;21.75;12.52;;;8.90;99.90;;;;;;5041616;28;20386;-80
2021/05/29 04:03:36;;;;;;;35.28;15.93;;;8.90;99.90;;;;;;5043208;28;20049;-81
2021/05/29 04:06:02;;;;;;;29.45;14.38;;;9.00;99.90;;;;;;5039522;28;20060;-80
2021/05/29 04:08:29;;;;;;;33.72;16.85;;;9.10;99.90;;;;;;5042210;28;20044;-80
2021/05/29 04:10:56;;;;;;;41.05;16.98;;;9.20;99.90;;;;;;5038740;28;20081;-80
2021/05/29 04:13:23;;;;;;;42.63;16.45;;;9.30;99.90;;;;;;5045010;28;20403;-79
2021/05/29 04:15:49;;;;;;;53.40;18.70;;;9.40;99.90;;;;;;5043958;28;20053;-78
2021/05/29 04:18:20;;;;;;;44.25;17.98;;;9.50;99.90;;;;;;5042537;28;20136;-79
2021/05/29 04:20:47;;;;;;;38.20;16.75;;;9.60;99.90;;;;;;5034559;28;20068;-79
2021/05/29 04:23:14;;;;;;;59.00;18.60;;;9.60;99.90;;;;;;5042025;28;20045;-80
2021/05/29 04:25:40;;;;;;;44.20;17.02;;;9.60;99.90;;;;;;5038617;28;20100;-81
2021/05/29 04:28:07;;;;;;;44.55;17.10;;;9.70;99.90;;;;;;5073716;28;20145;-79
2021/05/29 04:30:34;;;;;;;43.88;17.58;;;9.80;99.90;;;;;;5039773;28;20047;-79
2021/05/29 04:33:01;;;;;;;59.25;17.55;;;9.80;99.90;;;;;;5039211;28;20041;-81
2021/05/29 04:35:28;;;;;;;49.95;16.55;;;9.90;99.90;;;;;;5048855;28;21299;-80
2021/05/29 04:37:55;;;;;;;46.00;18.17;;;9.80;99.90;;;;;;5039981;28;20050;-80
2021/05/29 04:40:24;;;;;;;39.80;16.13;;;9.90;99.90;;;;;;5044091;28;20072;-81
2021/05/29 04:42:51;;;;;;;42.28;16.60;;;9.90;99.90;;;;;;5052166;28;20045;-80
2021/05/29 04:45:19;;;;;;;40.03;15.75;;;9.90;99.90;;;;;;5041834;28;20111;-79
2021/05/29 04:47:47;;;;;;;42.05;16.15;;;10.00;99.90;;;;;;5043040;28;20045;-80
2021/05/29 04:50:15;;;;;;;36.38;16.02;;;10.00;99.90;;;;;;5035882;28;20408;-81
2021/05/29 04:52:41;;;;;;;52.10;18.00;;;10.10;99.90;;;;;;5037678;28;20052;-81
2021/05/29 04:55:10;;;;;;;37.75;16.58;;;10.20;99.90;;;;;;5042055;28;20468;-80
2021/05/29 04:57:37;;;;;;;35.78;16.73;;;10.30;99.90;;;;;;5035789;28;20045;-80
2021/05/29 05:00:10;;;;;;;40.20;15.90;;;10.30;99.90;;;;;;5059482;28;20494;-80
2021/05/29 05:02:37;;;;;;;36.60;16.35;;;10.40;99.90;;;;;;5039067;28;20924;-80
2021/05/29 05:05:06;;;;;;;33.40;16.20;;;10.40;99.90;;;;;;5039568;28;20053;-80
2021/05/29 05:07:33;;;;;;;40.67;17.65;;;10.50;99.90;;;;;;5047834;28;20133;-79
2021/05/29 05:09:59;;;;;;;39.08;17.83;;;10.60;99.90;;;;;;5039796;28;20048;-81
2021/05/29 05:12:26;;;;;;;33.60;15.52;;;10.70;99.90;;;;;;5037490;28;20051;-80
2021/05/29 05:14:53;;;;;;;31.23;16.52;;;10.80;99.90;;;;;;5040738;28;20053;-79
2021/05/29 05:17:23;;;;;;;33.13;16.42;;;10.90;99.90;;;;;;5057747;28;20048;-81
2021/05/29 05:19:50;;;;;;;34.33;17.00;;;11.00;99.90;;;;;;5035280;28;20136;-79
2021/05/29 05:22:17;;;;;;;32.58;16.52;;;11.00;99.90;;;;;;5039523;28;20048;-79
2021/05/29 05:24:44;;;;;;;31.27;16.55;;;11.10;99.90;;;;;;5058277;28;20033;-80
2021/05/29 05:27:10;;;;;;;32.88;16.58;;;11.20;99.90;;;;;;5038971;28;20120;-79
2021/05/29 05:29:37;;;;;;;31.85;15.85;;;11.20;99.90;;;;;;5035834;28;20400;-79
2021/05/29 05:32:04;;;;;;;30.55;16.13;;;11.30;99.90;;;;;;5034289;28;20115;-80
2021/05/29 05:34:30;;;;;;;28.80;15.05;;;11.30;99.90;;;;;;5055704;28;20052;-80
2021/05/29 05:36:58;;;;;;;31.98;15.27;;;11.50;99.90;;;;;;5038351;28;20449;-80
2021/05/29 05:39:24;;;;;;;27.98;15.38;;;11.70;99.90;;;;;;5035218;28;20156;-79
2021/05/29 05:41:51;;;;;;;28.65;15.23;;;11.80;99.90;;;;;;5049262;28;20148;-80
2021/05/29 05:44:18;;;;;;;27.58;15.95;;;11.90;99.90;;;;;;5056490;28;20053;-80
2021/05/29 05:46:45;;;;;;;24.45;15.25;;;11.90;99.90;;;;;;5037586;28;20052;-80
2021/05/29 05:49:11;;;;;;;30.23;15.52;;;12.00;99.90;;;;;;5031916;28;20132;-80
2021/05/29 05:51:38;;;;;;;30.08;15.05;;;12.00;99.90;;;;;;5074770;28;20049;-80
2021/05/29 05:54:05;;;;;;;24.17;15.05;;;12.10;99.90;;;;;;5057345;28;20426;-81
2021/05/29 05:56:32;;;;;;;29.13;14.00;;;12.10;99.90;;;;;;5039978;28;20104;-80
2021/05/29 05:58:59;;;;;;;29.05;14.82;;;12.10;99.90;;;;;;5041063;28;20496;-80
2021/05/29 06:01:27;;;;;;;22.27;13.82;;;12.10;99.90;;;;;;5041217;28;20069;-80
2021/05/29 06:03:54;;;;;;;22.88;13.55;;;12.20;99.90;;;;;;5059085;28;20435;-80
2021/05/29 06:06:22;;;;;;;24.10;14.07;;;12.20;99.90;;;;;;5048562;28;20053;-80
2021/05/29 06:08:49;;;;;;;21.38;12.95;;;12.30;99.90;;;;;;5040321;28;20025;-79
2021/05/29 06:11:16;;;;;;;26.48;13.48;;;12.40;99.90;;;;;;5037578;28;20053;-79
2021/05/29 06:19:38;;;;;;;23.23;13.88;;;12.60;99.90;;;;;;5063651;28;20044;-80
2021/05/29 06:21:52;;;;;;;25.88;12.88;;;12.60;99.90;;;;;;5033689;28;20036;-80
2021/05/29 06:24:28;;;;;;;25.73;13.10;;;12.60;99.90;;;;;;5036157;28;20048;-79
2021/05/29 06:26:56;;;;;;;19.30;12.45;;;12.70;99.90;;;;;;5058481;28;20041;-80
2021/05/29 06:29:23;;;;;;;17.63;11.52;;;12.80;99.90;;;;;;5039190;28;20715;-79
2021/05/29 06:31:50;;;;;;;18.60;12.23;;;13.10;99.90;;;;;;5036817;28;20051;-80
2021/05/29 06:34:18;;;;;;;19.20;11.85;;;13.40;99.90;;;;;;5042893;28;21058;-79
2021/05/29 06:36:45;;;;;;;21.17;11.43;;;13.70;99.90;;;;;;5040702;28;20048;-80
2021/05/29 06:39:12;;;;;;;20.48;11.05;;;13.90;99.90;;;;;;5046273;28;20057;-80
2021/05/29 06:41:40;;;;;;;17.45;11.32;;;14.10;99.90;;;;;;5043681;28;20131;-79
2021/05/29 06:44:11;;;;;;;17.48;11.00;;;14.20;99.90;;;;;;5040177;28;20049;-80
2021/05/29 06:46:39;;;;;;;21.95;11.75;;;14.20;99.90;;;;;;5046945;28;20049;-80
2021/05/29 06:49:07;;;;;;;14.85;10.90;;;14.20;99.90;;;;;;5044426;28;20053;-79
2021/05/29 06:52:24;;;;;;;18.25;11.55;;;14.30;99.90;;;;;;5048647;28;20063;-79
2021/05/29 06:59:34;;;;;;;19.20;11.23;;;14.40;99.90;;;;;;5046321;28;20041;-81
2021/05/29 07:02:01;;;;;;;17.35;11.65;;;14.50;99.90;;;;;;5048577;28;20041;-81
2021/05/29 07:04:28;;;;;;;15.98;10.70;;;14.70;99.90;;;;;;5040897;28;20057;-80
2021/05/29 07:06:55;;;;;;;17.20;11.23;;;15.00;99.90;;;;;;5043241;28;20055;-82
2021/05/29 07:09:22;;;;;;;15.98;10.57;;;15.40;99.90;;;;;;5041978;28;20106;-81
2021/05/29 07:11:49;;;;;;;16.73;9.70;;;15.80;99.90;;;;;;5044350;28;20049;-81
2021/05/29 07:14:16;;;;;;;13.73;9.10;;;16.20;99.90;;;;;;5060179;28;20048;-81
2021/05/29 07:16:48;;;;;;;11.02;8.73;;;16.50;99.90;;;;;;5039615;28;20056;-81
2021/05/29 07:19:15;;;;;;;12.55;8.50;;;16.80;99.90;;;;;;5049241;28;20144;-81
2021/05/29 07:21:45;;;;;;;13.00;8.00;;;17.00;99.90;;;;;;5034304;28;20064;-81
2021/05/29 07:24:12;;;;;;;13.20;8.63;;;17.10;99.90;;;;;;5043855;28;20155;-78
2021/05/29 07:26:39;;;;;;;15.40;7.32;;;17.30;99.90;;;;;;5043090;28;20049;-81
2021/05/29 07:29:07;;;;;;;11.60;7.82;;;17.40;99.90;;;;;;5045939;28;20082;-82
2021/05/29 07:31:34;;;;;;;12.48;8.98;;;17.40;99.90;;;;;;5044533;28;20064;-80
2021/05/29 07:34:01;;;;;;;10.88;7.97;;;17.50;99.90;;;;;;5038338;28;20040;-80
2021/05/29 07:36:29;;;;;;;10.10;7.68;;;17.50;99.90;;;;;;5050628;28;20053;-79
2021/05/29 07:38:55;;;;;;;20.85;10.25;;;17.50;99.90;;;;;;5047645;28;20052;-79
2021/05/29 07:41:22;;;;;;;11.35;9.18;;;17.40;99.90;;;;;;5046789;28;20400;-79
2021/05/29 07:43:49;;;;;;;15.40;8.70;;;17.30;99.90;;;;;;5042954;28;20037;-80
2021/05/29 07:46:18;;;;;;;15.27;8.70;;;17.10;99.90;;;;;;5042303;28;20068;-80
2021/05/29 07:48:45;;;;;;;13.15;8.80;;;17.00;99.90;;;;;;5039061;28;20104;-80
2021/05/29 07:51:12;;;;;;;12.88;8.55;;;16.90;99.90;;;;;;5056934;28;20128;-80
2021/05/29 07:53:41;;;;;;;13.00;8.77;;;16.70;99.90;;;;;;5037203;28;20956;-80
2021/05/29 07:56:10;;;;;;;12.13;8.43;;;16.60;99.90;;;;;;5042339;28;20044;-80
2021/05/29 07:58:40;;;;;;;11.98;9.50;;;16.60;99.90;;;;;;5047871;28;20492;-79
2021/05/29 08:01:10;;;;;;;14.45;9.50;;;16.70;99.90;;;;;;5046050;28;20077;-80
2021/05/29 08:03:38;;;;;;;13.05;8.55;;;16.80;99.90;;;;;;5076030;28;20127;-80
2021/05/29 08:06:10;;;;;;;11.23;8.05;;;17.10;99.90;;;;;;5039753;28;20137;-80
2021/05/29 08:08:37;;;;;;;9.57;7.22;;;17.30;99.90;;;;;;5042644;28;20496;-80
2021/05/29 08:11:04;;;;;;;10.52;7.63;;;17.40;99.90;;;;;;5039026;28;21051;-81
2021/05/29 08:13:31;;;;;;;11.68;7.63;;;17.60;99.90;;;;;;5042241;28;20041;-79
2021/05/29 08:15:58;;;;;;;10.63;7.40;;;17.70;99.90;;;;;;5028678;28;20144;-81
2021/05/29 08:18:25;;;;;;;11.23;6.93;;;17.80;99.90;;;;;;5040963;28;20144;-82
2021/05/29 08:20:52;;;;;;;7.95;5.97;;;17.90;99.90;;;;;;5044870;28;21735;-81
2021/05/29 08:23:19;;;;;;;9.82;6.00;;;17.90;99.90;;;;;;5041907;28;20049;-81
2021/05/29 08:25:46;;;;;;;7.80;5.65;;;17.90;99.90;;;;;;5049340;28;20453;-80
2021/05/29 08:28:14;;;;;;;6.90;5.53;;;17.90;99.90;;;;;;5034171;28;20156;-81
2021/05/29 08:30:40;;;;;;;7.75;5.85;;;17.90;99.90;;;;;;5077707;28;20532;-80
2021/05/29 08:33:07;;;;;;;9.38;6.15;;;18.00;99.90;;;;;;5040262;28;20049;-80
2021/05/29 08:35:35;;;;;;;7.00;5.50;;;18.00;99.90;;;;;;5043537;28;20049;-80
2021/05/29 08:38:05;;;;;;;8.25;5.32;;;18.10;99.90;;;;;;5040157;28;20057;-80
2021/05/29 08:40:32;;;;;;;8.27;5.15;;;18.00;99.90;;;;;;5039198;28;20067;-80
2021/05/29 08:43:00;;;;;;;7.97;5.50;;;18.00;99.90;;;;;;5043584;28;20156;-81
2021/05/29 08:45:27;;;;;;;7.00;5.65;;;18.10;99.90;;;;;;5036744;28;20147;-80
2021/05/29 08:47:54;;;;;;;12.63;5.97;;;18.30;99.90;;;;;;5020683;28;20048;-80
2021/05/29 08:50:21;;;;;;;9.65;6.47;;;18.40;99.90;;;;;;5042941;28;20067;-81
2021/05/29 08:52:48;;;;;;;7.90;6.22;;;18.60;99.90;;;;;;5043835;28;20071;-80
2021/05/29 08:55:16;;;;;;;10.43;7.10;;;18.70;99.90;;;;;;5071891;28;20053;-80
2021/05/29 08:57:43;;;;;;;48.40;8.93;;;18.80;99.90;;;;;;5038676;28;20053;-80
2021/05/29 09:00:15;;;;;;;9.57;6.85;;;18.90;99.90;;;;;;5046315;28;20450;-80
2021/05/29 09:03:15;;;;;;;12.07;7.00;;;19.00;99.90;;;;;;5056802;28;20137;-81
2021/05/29 09:05:50;;;;;;;14.90;7.90;;;19.00;99.90;;;;;;5032675;28;20061;-80
2021/05/29 09:08:27;;;;;;;10.82;8.45;;;18.90;99.70;;;;;;5056408;28;20045;-80
2021/05/29 09:10:57;;;;;;;16.92;8.90;;;18.70;99.90;;;;;;5057803;28;20049;-80
2021/05/29 09:13:25;;;;;;;10.75;8.13;;;18.60;99.90;;;;;;5041393;28;20143;-81
2021/05/29 09:16:02;;;;;;;16.42;8.85;;;18.50;99.90;;;;;;5038880;28;20055;-81
2021/05/29 09:18:48;;;;;;;10.50;7.97;;;18.40;99.90;;;;;;5041418;28;20048;-81
2021/05/29 09:21:31;;;;;;;13.57;7.93;;;18.10;99.90;;;;;;5058132;28;20057;-81
2021/05/29 09:24:03;;;;;;;10.05;6.63;;;18.00;99.90;;;;;;5025119;28;20072;-81
2021/05/29 09:26:46;;;;;;;9.23;6.45;;;18.10;99.90;;;;;;5045911;28;20110;-80
2021/05/29 09:29:14;;;;;;;8.80;5.60;;;18.20;99.90;;;;;;5041831;28;20125;-80
2021/05/29 09:32:02;;;;;;;8.95;5.55;;;18.40;99.90;;;;;;5044423;28;20049;-80
2021/05/29 09:34:43;;;;;;;7.65;5.75;;;18.80;99.90;;;;;;5044966;28;20045;-81
2021/05/29 09:37:16;;;;;;;8.88;5.22;;;19.20;98.50;;;;;;5070583;28;20851;-80
2021/05/29 09:39:46;;;;;;;8.20;5.85;;;19.40;97.40;;;;;;5065519;28;20045;-80
2021/05/29 09:42:14;;;;;;;10.93;7.55;;;19.40;97.10;;;;;;5036949;28;20053;-80
2021/05/29 09:44:40;;;;;;;7.55;6.35;;;19.40;97.10;;;;;;5043410;28;20087;-80
2021/05/29 09:47:15;;;;;;;13.60;6.97;;;19.50;97.70;;;;;;5038889;28;20042;-80
2021/05/29 09:49:45;;;;;;;10.60;7.38;;;19.50;97.20;;;;;;5052687;28;20581;-80
2021/05/29 09:52:31;;;;;;;10.75;7.00;;;19.60;96.50;;;;;;5039505;28;20144;-81
2021/05/29 09:55:01;;;;;;;15.82;6.70;;;19.50;96.30;;;;;;5047157;28;20048;-80
2021/05/29 09:57:28;;;;;;;10.75;6.93;;;19.60;96.80;;;;;;5047442;28;20060;-80
2021/05/29 10:00:06;;;;;;;12.23;7.88;;;19.70;97.20;;;;;;5045494;28;20045;-79
2021/05/29 10:02:32;;;;;;;10.57;7.53;;;19.70;96.40;;;;;;5035883;28;20137;-80
2021/05/29 10:04:59;;;;;;;12.32;7.78;;;19.60;96.80;;;;;;5046190;28;20048;-79
2021/05/29 10:07:40;;;;;;;13.13;6.68;;;19.50;97.40;;;;;;5036352;28;20105;-80
2021/05/29 10:10:07;;;;;;;12.25;7.70;;;19.60;96.20;;;;;;5044635;28;20053;-80
2021/05/29 10:12:34;;;;;;;11.05;7.80;;;19.60;97.60;;;;;;5036760;28;21869;-80
2021/05/29 10:15:02;;;;;;;12.13;6.95;;;19.60;97.20;;;;;;5048556;28;20065;-80
2021/05/29 10:17:30;;;;;;;8.23;6.82;;;19.60;96.90;;;;;;5041604;28;20541;-79
2021/05/29 10:19:58;;;;;;;9.85;6.25;;;19.70;95.20;;;;;;5056155;28;20141;-81
2021/05/29 10:22:25;;;;;;;10.10;7.60;;;19.60;96.30;;;;;;5045385;28;20598;-80
2021/05/29 10:24:53;;;;;;;10.10;7.47;;;19.80;95.80;;;;;;5075881;28;20055;-81
2021/05/29 10:27:28;;;;;;;11.63;6.35;;;20.00;96.50;;;;;;5054178;28;20055;-80
2021/05/29 10:29:59;;;;;;;8.30;4.93;;;20.50;94.60;;;;;;5041285;28;20052;-81
2021/05/29 10:32:27;;;;;;;8.88;5.65;;;20.60;91.80;;;;;;5048878;28;20128;-80
2021/05/29 10:35:04;;;;;;;9.55;6.10;;;20.70;92.00;;;;;;5074859;28;20052;-81
2021/05/29 10:37:52;;;;;;;9.18;6.50;;;20.60;91.90;;;;;;5045938;28;20041;-80
2021/05/29 10:40:27;;;;;;;8.80;6.47;;;20.50;92.20;;;;;;5030230;28;20046;-80
2021/05/29 10:43:20;;;;;;;8.63;5.78;;;20.30;92.90;;;;;;5059319;28;20136;-79
2021/05/29 10:45:50;;;;;;;7.88;5.07;;;20.20;92.30;;;;;;5041232;28;20037;-80
2021/05/29 10:48:19;;;;;;;8.30;4.90;;;20.00;92.20;;;;;;5047748;28;20049;-80
2021/05/29 10:50:56;;;;;;;5.55;4.30;;;20.00;92.70;;;;;;5043525;28;20103;-79
2021/05/29 10:53:43;;;;;;;8.63;5.10;;;20.00;91.00;;;;;;5062312;28;20472;-79
2021/05/29 10:56:18;;;;;;;8.93;4.85;;;19.80;91.80;;;;;;5055873;28;20386;-79
2021/05/29 10:59:10;;;;;;;8.00;4.95;;;19.90;92.00;;;;;;5047100;28;20041;-80
2021/05/29 11:01:38;;;;;;;5.53;4.00;;;20.10;90.30;;;;;;5044792;28;20075;-80
2021/05/29 11:04:12;;;;;;;7.72;4.85;;;20.30;92.80;;;;;;5041832;28;20053;-81
2021/05/29 11:06:41;;;;;;;10.57;6.07;;;20.60;90.90;;;;;;5076863;28;20132;-80
2021/05/29 11:09:09;;;;;;;7.47;5.07;;;20.70;91.00;;;;;;5038384;28;20467;-80
2021/05/29 11:11:36;;;;;;;7.97;5.43;;;20.70;91.80;;;;;;5043403;28;20045;-81
2021/05/29 11:14:05;;;;;;;6.35;4.90;;;20.90;91.40;;;;;;5038890;28;20045;-80
2021/05/29 11:16:46;;;;;;;8.52;5.82;;;21.10;91.70;;;;;;5034346;28;20163;-80
2021/05/29 11:19:22;;;;;;;8.10;5.18;;;21.20;89.30;;;;;;5044434;28;20051;-81
2021/05/29 11:22:01;;;;;;;11.63;6.57;;;21.10;90.40;;;;;;5038730;28;20051;-80
2021/05/29 11:24:47;;;;;;;8.43;6.05;;;21.10;89.00;;;;;;5043406;28;20097;-80
2021/05/29 11:27:28;;;;;;;6.90;5.32;;;21.20;90.00;;;;;;5058635;28;20052;-80
2021/05/29 11:30:00;;;;;;;12.95;5.43;;;21.30;90.40;;;;;;5043035;28;20056;-80
2021/05/29 11:35:38;;;;;;;6.88;5.28;;;21.50;87.60;;;;;;5043264;28;20136;-80
2021/05/29 11:38:35;;;;;;;6.57;4.82;;;21.50;88.40;;;;;;5031659;28;20106;-81
2021/05/29 11:41:10;;;;;;;8.50;5.22;;;21.80;87.20;;;;;;5076954;28;20056;-81
2021/05/29 11:43:49;;;;;;;6.38;5.10;;;22.10;83.90;;;;;;5043483;28;20568;-81
2021/05/29 11:46:17;;;;;;;7.57;5.38;;;22.40;85.20;;;;;;5060107;28;20073;-81
2021/05/29 11:48:53;;;;;;;8.10;5.45;;;22.70;84.40;;;;;;5046705;28;20080;-81
2021/05/29 11:51:20;;;;;;;8.80;5.93;;;22.80;85.20;;;;;;5044263;28;20047;-81
2021/05/29 11:53:56;;;;;;;6.90;5.75;;;22.80;80.60;;;;;;5040664;28;20055;-81
2021/05/29 11:56:34;;;;;;;7.38;5.93;;;22.50;83.40;;;;;;5060010;28;20063;-81
2021/05/29 11:59:04;;;;;;;9.23;5.20;;;22.40;83.10;;;;;;5037653;28;20057;-81
2021/05/29 12:01:33;;;;;;;7.55;4.55;;;22.80;89.00;;;;;;5075799;28;20049;-79
2021/05/29 12:04:08;;;;;;;9.18;6.38;;;23.70;81.00;;;;;;5041273;28;20056;-81
2021/05/29 12:06:39;;;;;;;8.32;5.82;;;23.80;76.50;;;;;;5075163;28;20152;-81
2021/05/29 12:09:08;;;;;;;7.78;6.38;;;23.40;79.40;;;;;;5043065;28;20037;-81
2021/05/29 12:11:36;;;;;;;9.55;6.05;;;23.10;78.50;;;;;;5063237;28;20966;-82
2021/05/29 12:14:05;;;;;;;11.40;6.57;;;23.50;81.70;;;;;;5043217;28;20107;-81
2021/05/29 12:16:40;;;;;;;9.50;6.57;;;24.80;75.30;;;;;;5050590;28;20056;-81
2021/05/29 12:19:28;;;;;;;7.93;6.40;;;25.00;71.90;;;;;;5048219;28;20049;-81
2021/05/29 12:21:57;;;;;;;11.57;6.60;;;24.50;71.90;;;;;;5077749;28;20059;-81
2021/05/29 12:24:26;;;;;;;7.72;5.55;;;23.90;72.50;;;;;;5071938;28;20053;-81
2021/05/29 12:26:54;;;;;;;7.68;5.60;;;24.20;78.80;;;;;;5045371;28;20052;-81
2021/05/29 12:29:23;;;;;;;6.97;6.20;;;25.00;71.00;;;;;;5044476;28;20053;-81
2021/05/29 12:31:53;;;;;;;10.52;6.57;;;25.10;70.60;;;;;;5026682;28;20408;-81
2021/05/29 12:34:25;;;;;;;7.93;6.07;;;24.90;69.80;;;;;;5072443;28;20109;-81
2021/05/29 12:37:16;;;;;;;12.35;6.80;;;24.40;70.70;;;;;;5043916;28;20049;-81
2021/05/29 12:40:01;;;;;;;9.20;5.85;;;23.90;73.50;;;;;;5042479;28;20068;-81
2021/05/29 12:42:33;;;;;;;10.98;6.45;;;23.90;74.10;;;;;;5053536;28;20053;-81
2021/05/29 12:45:25;;;;;;;6.38;5.47;;;24.00;76.30;;;;;;5080039;28;20060;-81
2021/05/29 12:48:00;;;;;;;7.32;4.95;;;25.10;75.30;;;;;;5047234;28;20147;-81
2021/05/29 12:50:29;;;;;;;9.02;5.78;;;26.80;69.50;;;;;;5042833;28;20048;-81
2021/05/29 12:53:12;;;;;;;10.70;5.60;;;27.90;65.60;;;;;;5043008;28;20056;-81
2021/05/29 12:55:41;;;;;;;6.75;5.63;;;28.90;61.50;;;;;;5044623;28;20053;-81
2021/05/29 12:58:15;;;;;;;7.15;5.93;;;28.50;58.60;;;;;;5046624;28;20037;-81
2021/05/29 13:01:09;;;;;;;7.05;5.22;;;28.00;63.60;;;;;;5044103;28;20042;-81
2021/05/29 13:11:44;;;;;;;7.97;5.65;;;28.20;60.10;;;;;;5043168;28;20039;-81
2021/05/29 13:14:17;;;;;;;10.85;5.90;;;28.90;60.50;;;;;;5036913;28;20044;-81
2021/05/29 13:16:54;;;;;;;8.27;5.20;;;29.80;57.00;;;;;;5048463;28;20067;-81